Time;durP1;ratioP1;P1;durP2;ratioP2;P2;SDS_P1;SDS_P2;PMS_P1;PMS_P2;Temp;Humidity;BMP_temperature;BMP_pressure;BME280_temperature;BME280_humidity;BME280_pressure;Samples;Min_cycle;Max_cycle;Signal;HPM_P1;HPM_P2
2023/11/18 00:01:32;;;;;;;4.13;3.60;;;;;;;;;;6280900;28;20302;-73
2023/11/18 00:04:35;;;;;;;4.50;4.20;;;;;;;;;;6279855;28;20296;-73
2023/11/18 00:07:41;;;;;;;3.93;3.67;;;;;;;;;;6280628;28;20296;-73
2023/11/18 00:10:44;;;;;;;5.67;4.10;;;;;;;;;;6279991;28;20290;-72
2023/11/18 00:13:48;;;;;;;9.47;4.50;;;;;;;;;;6279874;28;20613;-72
2023/11/18 00:16:52;;;;;;;9.13;4.57;;;;;;;;;;6280678;28;20377;-72
2023/11/18 00:19:55;;;;;;;5.67;3.90;;;;;;;;;;6277341;28;20297;-73
2023/11/18 00:23:04;;;;;;;9.90;5.00;;;;;;;;;;6270431;28;20336;-73
2023/11/18 00:26:08;;;;;;;9.53;4.40;;;;;;;;;;6280783;28;20305;-73
2023/11/18 00:29:12;;;;;;;9.40;4.57;;;;;;;;;;6294397;28;20306;-74
2023/11/18 00:32:16;;;;;;;8.67;4.67;;;;;;;;;;6294913;28;20312;-72
2023/11/18 00:35:21;;;;;;;12.93;4.87;;;;;;;;;;6276716;28;20300;-73
2023/11/18 00:38:26;;;;;;;4.87;4.40;;;;;;;;;;6286704;28;20298;-73
2023/11/18 00:41:29;;;;;;;7.10;4.40;;;;;;;;;;6279149;28;20292;-72
2023/11/18 00:44:34;;;;;;;6.93;4.73;;;;;;;;;;6279617;28;20313;-71
2023/11/18 00:47:37;;;;;;;5.90;4.83;;;;;;;;;;6279500;28;20300;-72
2023/11/18 00:50:41;;;;;;;7.23;5.30;;;;;;;;;;6278624;28;20317;-72
2023/11/18 00:53:47;;;;;;;9.07;4.97;;;;;;;;;;6278567;28;20456;-73
2023/11/18 00:56:51;;;;;;;7.57;5.20;;;;;;;;;;6236877;28;20290;-73
2023/11/18 00:59:55;;;;;;;11.83;5.33;;;;;;;;;;6261374;28;20293;-72
2023/11/18 01:02:59;;;;;;;10.17;5.73;;;;;;;;;;6260754;28;20627;-71
2023/11/18 01:06:04;;;;;;;15.80;5.77;;;;;;;;;;6259798;28;20381;-72
2023/11/18 01:09:09;;;;;;;11.07;5.83;;;;;;;;;;6278571;28;20313;-72
2023/11/18 01:12:13;;;;;;;10.70;6.03;;;;;;;;;;6278965;28;20290;-72
2023/11/18 01:15:17;;;;;;;9.50;5.50;;;;;;;;;;6278105;28;20297;-73
2023/11/18 01:18:21;;;;;;;8.57;5.47;;;;;;;;;;6278417;28;20374;-73
2023/11/18 01:21:25;;;;;;;10.50;6.07;;;;;;;;;;6278587;28;20302;-74
2023/11/18 01:24:30;;;;;;;7.30;5.60;;;;;;;;;;6278230;28;20297;-73
2023/11/18 01:27:34;;;;;;;8.50;5.40;;;;;;;;;;6278260;28;20424;-72
2023/11/18 01:30:37;;;;;;;8.87;5.90;;;;;;;;;;6260089;28;20391;-74
2023/11/18 01:33:41;;;;;;;11.57;6.47;;;;;;;;;;6293038;28;20302;-74
2023/11/18 01:36:45;;;;;;;9.20;6.67;;;;;;;;;;6278534;28;20296;-72
2023/11/18 01:39:50;;;;;;;12.77;6.17;;;;;;;;;;6292984;28;20304;-72
2023/11/18 01:42:54;;;;;;;15.80;6.13;;;;;;;;;;6283610;28;20322;-72
2023/11/18 01:45:58;;;;;;;11.40;6.33;;;;;;;;;;6283276;28;20305;-72
2023/11/18 01:49:03;;;;;;;13.73;6.43;;;;;;;;;;6297900;28;20301;-75
2023/11/18 01:52:07;;;;;;;13.10;6.53;;;;;;;;;;6283083;28;20317;-72
2023/11/18 01:55:13;;;;;;;9.47;6.40;;;;;;;;;;6282712;28;20300;-73
2023/11/18 01:58:19;;;;;;;14.20;6.50;;;;;;;;;;6286288;28;20304;-72
2023/11/18 02:01:23;;;;;;;10.07;6.57;;;;;;;;;;6283060;28;20307;-71
2023/11/18 02:04:27;;;;;;;10.40;6.37;;;;;;;;;;6296812;28;20310;-71
2023/11/18 02:07:31;;;;;;;7.40;6.67;;;;;;;;;;6297750;28;20369;-72
2023/11/18 02:10:41;;;;;;;12.67;6.60;;;;;;;;;;6297668;28;20305;-72
2023/11/18 02:13:49;;;;;;;8.70;6.17;;;;;;;;;;6297535;28;20489;-72
2023/11/18 02:16:54;;;;;;;7.17;6.03;;;;;;;;;;6283030;28;20346;-71
2023/11/18 02:19:58;;;;;;;7.20;5.97;;;;;;;;;;6297634;28;20292;-73
2023/11/18 02:23:02;;;;;;;12.10;5.90;;;;;;;;;;6282807;28;20671;-73
2023/11/18 02:26:07;;;;;;;9.10;5.37;;;;;;;;;;6283038;28;20301;-75
2023/11/18 02:29:12;;;;;;;8.53;6.20;;;;;;;;;;6264382;28;20297;-72
2023/11/18 02:32:23;;;;;;;6.70;5.13;;;;;;;;;;6298254;28;20295;-72
2023/11/18 02:35:31;;;;;;;5.00;4.60;;;;;;;;;;6282252;28;20290;-74
2023/11/18 02:38:40;;;;;;;5.07;4.60;;;;;;;;;;6280863;28;20292;-72
2023/11/18 02:41:48;;;;;;;7.23;4.77;;;;;;;;;;6282457;28;20297;-72
2023/11/18 02:44:59;;;;;;;5.10;4.60;;;;;;;;;;6282205;28;20296;-73
2023/11/18 02:48:06;;;;;;;4.87;4.57;;;;;;;;;;6296878;28;20301;-72
2023/11/18 02:51:12;;;;;;;7.47;4.67;;;;;;;;;;6264249;28;20302;-73
2023/11/18 02:54:16;;;;;;;4.77;4.47;;;;;;;;;;6280534;28;20306;-71
2023/11/18 02:57:21;;;;;;;4.83;4.47;;;;;;;;;;6282029;28;20301;-72
2023/11/18 03:00:25;;;;;;;4.30;4.00;;;;;;;;;;6261562;28;20472;-73
2023/11/18 03:03:29;;;;;;;4.97;4.40;;;;;;;;;;6280990;28;20498;-72
2023/11/18 03:06:33;;;;;;;5.00;4.60;;;;;;;;;;6281656;28;20586;-71
2023/11/18 03:09:39;;;;;;;4.33;4.03;;;;;;;;;;6263358;28;20321;-73
2023/11/18 03:12:45;;;;;;;4.27;3.87;;;;;;;;;;6282172;28;20293;-72
2023/11/18 03:15:50;;;;;;;4.00;3.70;;;;;;;;;;6263106;28;20304;-72
2023/11/18 03:18:54;;;;;;;4.67;4.27;;;;;;;;;;6281052;28;20562;-72
2023/11/18 03:21:58;;;;;;;8.30;5.07;;;;;;;;;;6281155;28;20309;-72
2023/11/18 03:25:02;;;;;;;9.37;5.37;;;;;;;;;;6280427;28;20298;-74
2023/11/18 03:28:07;;;;;;;5.03;4.33;;;;;;;;;;6295237;28;20484;-73
2023/11/18 03:31:12;;;;;;;6.13;4.30;;;;;;;;;;6262611;28;20297;-73
2023/11/18 03:34:15;;;;;;;5.20;4.00;;;;;;;;;;6262115;28;20301;-72
2023/11/18 03:37:23;;;;;;;4.40;4.07;;;;;;;;;;6263200;28;20613;-71
2023/11/18 03:40:28;;;;;;;4.10;3.80;;;;;;;;;;6280215;28;20313;-72
2023/11/18 03:43:34;;;;;;;3.90;3.70;;;;;;;;;;6295807;28;20306;-71
2023/11/18 03:46:37;;;;;;;4.97;3.90;;;;;;;;;;6296245;28;20292;-71
2023/11/18 03:49:41;;;;;;;3.73;3.53;;;;;;;;;;6262074;28;20306;-72
2023/11/18 03:52:46;;;;;;;4.53;3.73;;;;;;;;;;6280473;28;20296;-71
2023/11/18 03:55:51;;;;;;;3.50;3.30;;;;;;;;;;6295160;28;20289;-72
2023/11/18 03:58:56;;;;;;;4.23;3.87;;;;;;;;;;6278327;28;20307;-73
2023/11/18 04:02:00;;;;;;;3.70;3.40;;;;;;;;;;6259375;28;20727;-72
2023/11/18 04:05:05;;;;;;;3.30;3.20;;;;;;;;;;6292556;28;20439;-71
2023/11/18 04:08:08;;;;;;;3.97;3.50;;;;;;;;;;6280010;28;20658;-71
2023/11/18 04:11:13;;;;;;;3.20;3.00;;;;;;;;;;6261301;28;20303;-73
2023/11/18 04:14:18;;;;;;;3.50;3.33;;;;;;;;;;6261559;28;20313;-74
2023/11/18 04:17:22;;;;;;;3.13;3.03;;;;;;;;;;6261953;28;20293;-72
2023/11/18 04:20:26;;;;;;;3.00;2.90;;;;;;;;;;6279373;28;20321;-73
2023/11/18 04:23:30;;;;;;;3.07;2.97;;;;;;;;;;6279117;28;20377;-73
2023/11/18 04:26:34;;;;;;;3.10;3.00;;;;;;;;;;6279644;28;20294;-72
2023/11/18 04:29:40;;;;;;;3.23;3.13;;;;;;;;;;6278771;28;20279;-71
2023/11/18 04:32:43;;;;;;;3.27;3.10;;;;;;;;;;6278958;28;20292;-72
2023/11/18 04:35:47;;;;;;;3.20;3.10;;;;;;;;;;6279220;28;20296;-72
2023/11/18 04:38:51;;;;;;;3.10;3.00;;;;;;;;;;6279145;28;20322;-72
2023/11/18 04:41:56;;;;;;;2.97;2.77;;;;;;;;;;6284843;28;20238;-73
2023/11/18 04:45:01;;;;;;;2.43;2.43;;;;;;;;;;6260535;28;20309;-72
2023/11/18 04:48:05;;;;;;;2.80;2.70;;;;;;;;;;6260675;28;20372;-74
2023/11/18 04:51:09;;;;;;;2.80;2.60;;;;;;;;;;6261178;28;20296;-72
2023/11/18 04:54:14;;;;;;;2.50;2.40;;;;;;;;;;6278606;28;20388;-72
2023/11/18 04:57:17;;;;;;;2.70;2.60;;;;;;;;;;6278716;28;20305;-74
2023/11/18 05:00:23;;;;;;;3.00;2.80;;;;;;;;;;6276790;28;20285;-73
2023/11/18 05:03:26;;;;;;;2.77;2.70;;;;;;;;;;6278005;28;20309;-73
2023/11/18 05:06:30;;;;;;;3.20;3.00;;;;;;;;;;6279073;28;20293;-73
2023/11/18 05:09:34;;;;;;;2.50;2.40;;;;;;;;;;6279258;28;20433;-72
2023/11/18 05:12:38;;;;;;;3.03;2.87;;;;;;;;;;6278512;28;20298;-72
2023/11/18 05:15:45;;;;;;;2.87;2.70;;;;;;;;;;6278285;28;20305;-74
2023/11/18 05:18:48;;;;;;;2.80;2.70;;;;;;;;;;6278283;28;20301;-72
2023/11/18 05:21:53;;;;;;;2.70;2.60;;;;;;;;;;6279164;28;20301;-73
2023/11/18 05:24:57;;;;;;;3.07;2.73;;;;;;;;;;6278390;28;20308;-72
2023/11/18 05:28:01;;;;;;;3.03;2.93;;;;;;;;;;6283471;28;20299;-72
2023/11/18 05:31:08;;;;;;;3.20;3.00;;;;;;;;;;6279913;28;20294;-72
2023/11/18 05:34:12;;;;;;;3.30;3.20;;;;;;;;;;6278611;28;20364;-72
2023/11/18 05:37:18;;;;;;;3.10;2.90;;;;;;;;;;6278672;28;20302;-72
2023/11/18 05:40:22;;;;;;;3.37;2.83;;;;;;;;;;6278127;28;20316;-73
2023/11/18 05:43:29;;;;;;;2.90;2.70;;;;;;;;;;6278250;28;20302;-72
2023/11/18 05:46:34;;;;;;;3.00;2.47;;;;;;;;;;6278633;28;20293;-72
2023/11/18 05:49:39;;;;;;;2.20;2.20;;;;;;;;;;6278223;28;20630;-72
2023/11/18 05:52:43;;;;;;;2.67;2.57;;;;;;;;;;6277948;28;20302;-72
2023/11/18 05:55:46;;;;;;;2.73;2.63;;;;;;;;;;6278115;28;20359;-73
2023/11/18 05:58:50;;;;;;;2.90;2.80;;;;;;;;;;6276015;28;20260;-73
2023/11/18 06:01:56;;;;;;;2.50;2.40;;;;;;;;;;6278167;28;20321;-71
2023/11/18 06:05:03;;;;;;;2.87;2.77;;;;;;;;;;6250660;28;20473;-71
2023/11/18 06:08:07;;;;;;;2.60;2.50;;;;;;;;;;6253193;28;20309;-74
2023/11/18 06:11:15;;;;;;;2.70;2.57;;;;;;;;;;6253180;28;20422;-72
2023/11/18 06:14:19;;;;;;;2.83;2.73;;;;;;;;;;6252912;28;20301;-72
2023/11/18 06:17:24;;;;;;;2.93;2.80;;;;;;;;;;6253517;28;20290;-73
2023/11/18 06:20:28;;;;;;;2.93;2.73;;;;;;;;;;6252772;28;20302;-72
2023/11/18 06:23:32;;;;;;;3.50;3.00;;;;;;;;;;6250084;28;20302;-74
2023/11/18 06:26:36;;;;;;;3.33;3.17;;;;;;;;;;6246270;28;20307;-71
2023/11/18 06:29:41;;;;;;;2.80;2.70;;;;;;;;;;6256355;28;20302;-72
2023/11/18 06:32:46;;;;;;;2.90;2.80;;;;;;;;;;6257707;28;20301;-73
2023/11/18 06:35:50;;;;;;;2.80;2.70;;;;;;;;;;6272300;28;20453;-74
2023/11/18 06:38:55;;;;;;;5.00;2.67;;;;;;;;;;6257057;28;20490;-72
2023/11/18 06:41:59;;;;;;;2.97;2.80;;;;;;;;;;6256882;28;20302;-73
2023/11/18 06:45:05;;;;;;;2.83;2.73;;;;;;;;;;6257126;28;20250;-74
2023/11/18 06:48:10;;;;;;;3.13;3.03;;;;;;;;;;6257580;28;20318;-73
2023/11/18 06:51:15;;;;;;;3.17;2.40;;;;;;;;;;6257272;28;20312;-72
2023/11/18 06:54:18;;;;;;;3.40;3.20;;;;;;;;;;6256743;28;20289;-72
2023/11/18 06:57:22;;;;;;;3.13;2.93;;;;;;;;;;6257375;28;20610;-72
2023/11/18 07:00:27;;;;;;;3.10;2.87;;;;;;;;;;6254758;28;20347;-72
2023/11/18 07:03:33;;;;;;;2.97;2.83;;;;;;;;;;6262075;28;20337;-74
2023/11/18 07:06:39;;;;;;;2.90;2.80;;;;;;;;;;6272091;28;20604;-72
2023/11/18 07:09:44;;;;;;;3.10;3.00;;;;;;;;;;6256415;28;20363;-74
2023/11/18 07:12:48;;;;;;;2.77;2.60;;;;;;;;;;6256067;28;20289;-72
2023/11/18 07:15:53;;;;;;;2.20;2.20;;;;;;;;;;6256596;28;20370;-72
2023/11/18 07:18:59;;;;;;;2.87;2.57;;;;;;;;;;6256298;28;20305;-72
2023/11/18 07:22:06;;;;;;;2.80;2.70;;;;;;;;;;6256845;28;20304;-72
2023/11/18 07:25:10;;;;;;;2.70;2.60;;;;;;;;;;6256556;28;20302;-71
2023/11/18 07:28:14;;;;;;;2.57;2.50;;;;;;;;;;6255818;28;20301;-72
2023/11/18 07:31:20;;;;;;;2.73;2.63;;;;;;;;;;6256186;28;20305;-72
2023/11/18 07:34:25;;;;;;;2.70;2.50;;;;;;;;;;6255785;28;20618;-72
2023/11/18 07:37:32;;;;;;;2.87;2.77;;;;;;;;;;6255988;28;20290;-71
2023/11/18 07:40:37;;;;;;;5.73;2.60;;;;;;;;;;6256226;28;20294;-71
2023/11/18 07:43:41;;;;;;;2.57;2.47;;;;;;;;;;6255910;28;20299;-72
2023/11/18 07:46:45;;;;;;;2.53;2.40;;;;;;;;;;6255874;28;20321;-71
2023/11/18 07:49:50;;;;;;;2.80;2.60;;;;;;;;;;6255443;28;20301;-72
2023/11/18 07:52:55;;;;;;;2.80;2.60;;;;;;;;;;6255123;28;20314;-72
2023/11/18 07:56:01;;;;;;;2.70;2.60;;;;;;;;;;6255497;28;20294;-71
2023/11/18 07:59:06;;;;;;;3.20;2.73;;;;;;;;;;6253306;28;20306;-74
2023/11/18 08:02:14;;;;;;;2.87;2.77;;;;;;;;;;6255555;28;20488;-73
2023/11/18 08:05:19;;;;;;;2.80;2.70;;;;;;;;;;6276577;28;20298;-72
2023/11/18 08:08:23;;;;;;;2.43;2.33;;;;;;;;;;6279838;28;20578;-74
2023/11/18 08:11:27;;;;;;;2.80;2.60;;;;;;;;;;6280109;28;20300;-74
2023/11/18 08:14:33;;;;;;;2.60;2.40;;;;;;;;;;6279706;28;20589;-72
2023/11/18 08:17:36;;;;;;;2.57;2.50;;;;;;;;;;6279794;28;20288;-71
2023/11/18 08:20:43;;;;;;;2.57;2.50;;;;;;;;;;6280712;28;20294;-72
2023/11/18 08:23:47;;;;;;;2.50;2.50;;;;;;;;;;6279971;28;20313;-72
2023/11/18 08:26:54;;;;;;;2.40;2.30;;;;;;;;;;6280560;28;20295;-72
2023/11/18 08:29:58;;;;;;;2.50;2.40;;;;;;;;;;6279088;28;20326;-71
2023/11/18 08:33:04;;;;;;;2.33;2.23;;;;;;;;;;6261054;28;20729;-71
2023/11/18 08:36:12;;;;;;;2.43;2.30;;;;;;;;;;6279313;28;20293;-76
2023/11/18 08:39:16;;;;;;;2.40;2.40;;;;;;;;;;6278627;28;20288;-74
2023/11/18 08:42:20;;;;;;;2.67;2.57;;;;;;;;;;6279213;28;20325;-74
2023/11/18 08:45:27;;;;;;;2.30;2.30;;;;;;;;;;6278903;28;20300;-73
2023/11/18 08:48:33;;;;;;;2.40;2.30;;;;;;;;;;6254195;28;20306;-72
2023/11/18 08:51:41;;;;;;;2.07;1.97;;;;;;;;;;6263734;28;20294;-73
2023/11/18 08:58:15;;;;;;;2.20;2.20;;;;;;;;;;6277304;28;20300;-71
2023/11/18 09:01:19;;;;;;;2.30;2.20;;;;;;;;;;6279417;28;20304;-72
2023/11/18 09:04:23;;;;;;;2.13;2.00;;;;;;;;;;6252485;28;20558;-71
2023/11/18 09:07:29;;;;;;;2.77;2.57;;;;;;;;;;6254311;28;20489;-71
2023/11/18 09:10:33;;;;;;;2.10;2.10;;;;;;;;;;6255325;28;20302;-73
2023/11/18 09:13:38;;;;;;;2.33;2.23;;;;;;;;;;6254994;28;20301;-72
2023/11/18 09:16:44;;;;;;;2.67;2.50;;;;;;;;;;6255027;28;20320;-72
2023/11/18 09:19:47;;;;;;;2.40;2.40;;;;;;;;;;6254622;28;20298;-72
2023/11/18 09:22:55;;;;;;;3.50;2.90;;;;;;;;;;6254333;28;20625;-72
2023/11/18 09:25:59;;;;;;;2.43;2.40;;;;;;;;;;6254450;28;20319;-73
2023/11/18 09:29:03;;;;;;;2.10;2.03;;;;;;;;;;6253924;28;20307;-72
2023/11/18 09:32:07;;;;;;;2.10;2.10;;;;;;;;;;6253856;28;20300;-72
2023/11/18 09:35:12;;;;;;;2.07;2.07;;;;;;;;;;6254066;28;20292;-72
2023/11/18 09:38:18;;;;;;;2.30;2.20;;;;;;;;;;6253573;28;20302;-73
2023/11/18 09:41:25;;;;;;;1.80;1.80;;;;;;;;;;6253790;28;20285;-72
2023/11/18 09:44:29;;;;;;;1.80;1.80;;;;;;;;;;6253582;28;20579;-72
2023/11/18 09:47:39;;;;;;;1.80;1.80;;;;;;;;;;6253661;28;20293;-72
2023/11/18 09:50:47;;;;;;;1.70;1.70;;;;;;;;;;6254480;28;20438;-71
2023/11/18 09:53:53;;;;;;;1.90;1.90;;;;;;;;;;6253525;28;20308;-73
2023/11/18 09:57:08;;;;;;;1.80;1.80;;;;;;;;;;6254323;28;20299;-72
2023/11/18 10:00:20;;;;;;;1.90;1.90;;;;;;;;;;6267691;28;20303;-72
2023/11/18 10:03:25;;;;;;;3.00;2.13;;;;;;;;;;6261697;28;20316;-73
2023/11/18 10:06:33;;;;;;;2.00;2.00;;;;;;;;;;6283127;28;20494;-72
2023/11/18 10:09:39;;;;;;;1.90;1.90;;;;;;;;;;6282911;28;20525;-74
2023/11/18 10:12:44;;;;;;;1.70;1.70;;;;;;;;;;6282970;28;20368;-71
2023/11/18 10:15:52;;;;;;;1.80;1.80;;;;;;;;;;6255963;28;20243;-72
2023/11/18 10:19:00;;;;;;;1.97;1.83;;;;;;;;;;6282250;28;20577;-72
2023/11/18 10:22:04;;;;;;;1.70;1.70;;;;;;;;;;6283232;28;20595;-72
2023/11/18 10:25:10;;;;;;;1.93;1.93;;;;;;;;;;6283461;28;20305;-73
2023/11/18 10:28:27;;;;;;;2.10;2.10;;;;;;;;;;6282560;28;20395;-72
2023/11/18 10:31:31;;;;;;;1.90;1.90;;;;;;;;;;6282996;28;20282;-74
2023/11/18 10:34:35;;;;;;;1.63;1.53;;;;;;;;;;6282412;28;20489;-73
2023/11/18 10:37:42;;;;;;;1.60;1.60;;;;;;;;;;6282009;28;20404;-72
2023/11/18 10:40:49;;;;;;;1.47;1.47;;;;;;;;;;6282018;28;20314;-72
2023/11/18 10:44:06;;;;;;;1.40;1.40;;;;;;;;;;6281653;28;20727;-73
2023/11/18 10:47:14;;;;;;;1.40;1.40;;;;;;;;;;6282028;28;20288;-73
2023/11/18 10:50:19;;;;;;;1.50;1.50;;;;;;;;;;6281399;28;20617;-73
2023/11/18 10:53:25;;;;;;;1.70;1.70;;;;;;;;;;6281086;28;20596;-74
2023/11/18 10:56:32;;;;;;;1.77;1.77;;;;;;;;;;6281905;28;20375;-71
2023/11/18 10:59:36;;;;;;;1.63;1.63;;;;;;;;;;6279193;28;20297;-72
2023/11/18 11:02:41;;;;;;;1.90;1.90;;;;;;;;;;6280566;28;20290;-71
2023/11/18 11:05:45;;;;;;;1.87;1.80;;;;;;;;;;6281208;28;20489;-71
2023/11/18 11:08:49;;;;;;;1.80;1.60;;;;;;;;;;6281081;28;20328;-72
2023/11/18 11:11:56;;;;;;;1.60;1.60;;;;;;;;;;6281799;28;20557;-73
2023/11/18 11:15:04;;;;;;;1.70;1.70;;;;;;;;;;6280995;28;20295;-72
2023/11/18 11:18:13;;;;;;;2.00;1.90;;;;;;;;;;6286801;28;20292;-72
2023/11/18 11:21:22;;;;;;;1.80;1.80;;;;;;;;;;6280858;28;20299;-74
2023/11/18 11:24:33;;;;;;;1.53;1.53;;;;;;;;;;6280809;28;20490;-71
2023/11/18 11:27:49;;;;;;;1.80;1.70;;;;;;;;;;6280701;28;20301;-74
2023/11/18 11:30:56;;;;;;;1.70;1.60;;;;;;;;;;6280961;28;20324;-70
2023/11/18 11:34:04;;;;;;;2.00;1.90;;;;;;;;;;6280403;28;20330;-72
2023/11/18 11:37:12;;;;;;;2.30;1.60;;;;;;;;;;6280552;28;20359;-72
2023/11/18 11:40:21;;;;;;;2.40;2.07;;;;;;;;;;6280123;28;20318;-72
2023/11/18 11:43:27;;;;;;;1.90;1.80;;;;;;;;;;6280323;28;20291;-72
2023/11/18 11:46:35;;;;;;;1.60;1.60;;;;;;;;;;6280638;28;20369;-72
2023/11/18 11:49:45;;;;;;;1.93;1.80;;;;;;;;;;6280124;28;20408;-72
2023/11/18 11:52:54;;;;;;;1.77;1.60;;;;;;;;;;6279582;28;20489;-71
2023/11/18 11:56:05;;;;;;;1.73;1.70;;;;;;;;;;6280741;28;20284;-73
2023/11/18 11:59:12;;;;;;;5.47;3.63;;;;;;;;;;6278150;28;20311;-71
2023/11/18 12:02:16;;;;;;;2.00;1.90;;;;;;;;;;6280695;28;20299;-73
2023/11/18 12:05:26;;;;;;;3.03;1.70;;;;;;;;;;6279418;28;20302;-70
2023/11/18 12:08:41;;;;;;;2.00;1.90;;;;;;;;;;6261645;28;20576;-69
2023/11/18 12:11:51;;;;;;;1.73;1.67;;;;;;;;;;6295920;28;20327;-69
2023/11/18 12:14:58;;;;;;;1.93;1.80;;;;;;;;;;6279274;28;20300;-69
2023/11/18 12:18:14;;;;;;;1.70;1.70;;;;;;;;;;6284311;28;20298;-70
2023/11/18 12:21:55;;;;;;;1.80;1.70;;;;;;;;;;6279283;28;20332;-71
2023/11/18 12:25:36;;;;;;;1.83;1.73;;;;;;;;;;6294106;28;20485;-72
2023/11/18 12:28:45;;;;;;;2.40;1.60;;;;;;;;;;6279173;28;20558;-69
2023/11/18 12:31:51;;;;;;;2.00;2.00;;;;;;;;;;6279829;28;20297;-69
2023/11/18 12:34:54;;;;;;;1.60;1.60;;;;;;;;;;6278649;28;20330;-72
2023/11/18 12:38:23;;;;;;;1.80;1.80;;;;;;;;;;6260624;28;20355;-71
2023/11/18 12:41:37;;;;;;;1.93;1.70;;;;;;;;;;6256059;28;20299;-71
2023/11/18 12:44:58;;;;;;;1.63;1.60;;;;;;;;;;6278653;28;20302;-76
2023/11/18 12:48:11;;;;;;;1.90;1.83;;;;;;;;;;6278778;28;20310;-71
2023/11/18 12:51:20;;;;;;;1.70;1.70;;;;;;;;;;6278860;28;20307;-74
2023/11/18 12:54:27;;;;;;;1.60;1.60;;;;;;;;;;6278602;28;20469;-72
2023/11/18 12:57:31;;;;;;;1.50;1.50;;;;;;;;;;6278724;28;20287;-75
2023/11/18 13:00:35;;;;;;;2.13;1.57;;;;;;;;;;6292925;28;20303;-75
2023/11/18 13:03:41;;;;;;;1.70;1.70;;;;;;;;;;6278343;28;20328;-74
2023/11/18 13:06:45;;;;;;;1.73;1.73;;;;;;;;;;6279295;28;20303;-70
2023/11/18 13:09:49;;;;;;;1.70;1.60;;;;;;;;;;6278386;28;20297;-74
2023/11/18 13:12:53;;;;;;;1.53;1.47;;;;;;;;;;6278785;28;20582;-74
2023/11/18 13:15:58;;;;;;;1.70;1.70;;;;;;;;;;6279230;28;20308;-71
2023/11/18 13:19:05;;;;;;;1.70;1.70;;;;;;;;;;6251219;28;20223;-72
2023/11/18 13:22:10;;;;;;;4.23;1.70;;;;;;;;;;6278748;28;20303;-70
2023/11/18 13:25:14;;;;;;;1.47;1.47;;;;;;;;;;6278396;28;20307;-73
2023/11/18 13:28:19;;;;;;;4.00;1.60;;;;;;;;;;6277786;28;20242;-73
2023/11/18 13:31:22;;;;;;;1.57;1.57;;;;;;;;;;6279164;28;20287;-72
2023/11/18 13:34:30;;;;;;;5.93;2.00;;;;;;;;;;6278028;28;20287;-71
2023/11/18 13:37:34;;;;;;;3.60;1.80;;;;;;;;;;6280040;28;20334;-72
2023/11/18 13:40:47;;;;;;;1.60;1.60;;;;;;;;;;6283354;28;20435;-73
2023/11/18 13:43:52;;;;;;;2.93;1.63;;;;;;;;;;6282999;28;20304;-73
2023/11/18 13:46:56;;;;;;;1.50;1.50;;;;;;;;;;6283491;28;20318;-72
2023/11/18 13:50:02;;;;;;;3.37;1.33;;;;;;;;;;6282853;28;20488;-73
2023/11/18 13:53:07;;;;;;;1.47;1.47;;;;;;;;;;6282871;28;20611;-73
2023/11/18 13:56:12;;;;;;;1.73;1.47;;;;;;;;;;6283257;28;20299;-73
2023/11/18 13:59:16;;;;;;;1.50;1.50;;;;;;;;;;6281154;28;20303;-73
2023/11/18 14:02:21;;;;;;;2.60;1.60;;;;;;;;;;6283184;28;20306;-73
2023/11/18 14:05:26;;;;;;;1.60;1.60;;;;;;;;;;6282699;28;20291;-71
2023/11/18 14:08:30;;;;;;;1.60;1.50;;;;;;;;;;6282924;28;20300;-72
2023/11/18 14:11:34;;;;;;;1.50;1.40;;;;;;;;;;6283349;28;20305;-72
2023/11/18 14:14:38;;;;;;;3.60;1.77;;;;;;;;;;6283054;28;20420;-71
2023/11/18 14:17:42;;;;;;;2.83;1.80;;;;;;;;;;6282568;28;20290;-74
2023/11/18 14:20:51;;;;;;;1.93;1.67;;;;;;;;;;6283337;28;20303;-71
2023/11/18 14:23:59;;;;;;;1.80;1.80;;;;;;;;;;6282633;28;20314;-72
2023/11/18 14:27:04;;;;;;;1.50;1.50;;;;;;;;;;6283088;28;20609;-74
2023/11/18 14:30:09;;;;;;;1.87;1.87;;;;;;;;;;6282327;28;20297;-72
2023/11/18 14:33:13;;;;;;;1.67;1.57;;;;;;;;;;6281859;28;20295;-69
2023/11/18 14:36:18;;;;;;;1.70;1.70;;;;;;;;;;6282004;28;20607;-69
2023/11/18 14:39:23;;;;;;;2.40;1.70;;;;;;;;;;6282092;28;20539;-69
2023/11/18 14:42:27;;;;;;;1.70;1.70;;;;;;;;;;6282032;28;20287;-69
2023/11/18 14:45:30;;;;;;;2.73;1.70;;;;;;;;;;6282104;28;20286;-68
2023/11/18 14:48:34;;;;;;;1.60;1.60;;;;;;;;;;6280643;28;20305;-69
2023/11/18 14:51:40;;;;;;;2.00;1.90;;;;;;;;;;6282065;28;20320;-70
2023/11/18 14:54:43;;;;;;;2.00;1.90;;;;;;;;;;6282223;28;20318;-72
2023/11/18 14:57:47;;;;;;;2.40;2.30;;;;;;;;;;6262280;28;20286;-71
2023/11/18 15:00:51;;;;;;;2.20;2.10;;;;;;;;;;6282393;28;20379;-72
2023/11/18 15:03:56;;;;;;;2.10;1.97;;;;;;;;;;6281638;28;20330;-71
2023/11/18 15:07:01;;;;;;;2.27;2.27;;;;;;;;;;6280359;28;20338;-71
2023/11/18 15:10:06;;;;;;;1.93;1.93;;;;;;;;;;6288828;28;20307;-70
2023/11/18 15:13:14;;;;;;;1.60;1.60;;;;;;;;;;6281441;28;20301;-71
2023/11/18 15:16:19;;;;;;;1.60;1.60;;;;;;;;;;6282264;28;20320;-72
2023/11/18 15:19:23;;;;;;;4.53;2.00;;;;;;;;;;6281335;28;20596;-71
2023/11/18 15:22:28;;;;;;;2.13;1.80;;;;;;;;;;6281703;28;20294;-73
2023/11/18 15:25:32;;;;;;;1.70;1.70;;;;;;;;;;6281884;28;20291;-71
2023/11/18 15:28:36;;;;;;;1.70;1.70;;;;;;;;;;6280892;28;20306;-72
2023/11/18 15:31:40;;;;;;;1.63;1.63;;;;;;;;;;6281745;28;20607;-71
2023/11/18 15:34:45;;;;;;;4.33;2.00;;;;;;;;;;6286188;28;20480;-71
2023/11/18 15:37:50;;;;;;;2.90;1.97;;;;;;;;;;6280865;28;20301;-73
2023/11/18 15:40:55;;;;;;;2.43;2.20;;;;;;;;;;6280977;28;20500;-73
2023/11/18 15:43:59;;;;;;;2.23;2.20;;;;;;;;;;6280233;28;20297;-72
2023/11/18 15:47:03;;;;;;;1.87;1.80;;;;;;;;;;6280997;28;20307;-74
2023/11/18 15:50:07;;;;;;;1.70;1.70;;;;;;;;;;6280580;28;20579;-71
2023/11/18 15:53:14;;;;;;;2.20;2.10;;;;;;;;;;6280636;28;20299;-70
2023/11/18 15:56:19;;;;;;;1.93;1.93;;;;;;;;;;6280904;28;20295;-71
2023/11/18 15:59:25;;;;;;;2.23;2.13;;;;;;;;;;6278747;28;20318;-73
2023/11/18 16:02:28;;;;;;;2.33;2.23;;;;;;;;;;6295046;28;20311;-74
2023/11/18 16:05:33;;;;;;;3.17;2.43;;;;;;;;;;6280426;28;20310;-73
2023/11/18 16:08:40;;;;;;;3.00;2.30;;;;;;;;;;6280293;28;20295;-74
2023/11/18 16:11:44;;;;;;;2.67;2.17;;;;;;;;;;6280436;28;20298;-74
2023/11/18 16:14:48;;;;;;;2.00;2.00;;;;;;;;;;6262293;28;20306;-74
2023/11/18 16:17:52;;;;;;;1.70;1.70;;;;;;;;;;6279757;28;20421;-71
2023/11/18 16:20:57;;;;;;;1.83;1.83;;;;;;;;;;6280247;28;20298;-72
2023/11/18 16:24:03;;;;;;;2.20;1.90;;;;;;;;;;6279287;28;20330;-72
2023/11/18 16:27:07;;;;;;;2.10;2.10;;;;;;;;;;6280253;28;20290;-72
2023/11/18 16:30:11;;;;;;;1.70;1.70;;;;;;;;;;6279534;28;20309;-72
2023/11/18 16:33:15;;;;;;;2.10;2.10;;;;;;;;;;6278654;28;20321;-72
2023/11/18 16:36:21;;;;;;;1.83;1.83;;;;;;;;;;6285358;28;20325;-71
2023/11/18 16:39:27;;;;;;;3.90;1.73;;;;;;;;;;6279067;28;20306;-73
2023/11/18 16:42:30;;;;;;;1.80;1.80;;;;;;;;;;6293820;28;20318;-71
2023/11/18 16:45:34;;;;;;;2.00;2.00;;;;;;;;;;6279539;28;20301;-74
2023/11/18 16:48:38;;;;;;;1.90;1.90;;;;;;;;;;6278745;28;20294;-71
2023/11/18 16:51:43;;;;;;;1.80;1.80;;;;;;;;;;6254467;28;20630;-72
2023/11/18 16:54:49;;;;;;;2.20;2.00;;;;;;;;;;6262648;28;20290;-71
2023/11/18 16:57:54;;;;;;;2.00;2.00;;;;;;;;;;6292064;28;20489;-73
2023/11/18 17:00:58;;;;;;;2.07;2.03;;;;;;;;;;6278889;28;20307;-72
2023/11/18 17:04:01;;;;;;;2.20;2.20;;;;;;;;;;6278134;28;20301;-69
2023/11/18 17:07:05;;;;;;;2.40;2.30;;;;;;;;;;6278957;28;20298;-70
2023/11/18 17:10:12;;;;;;;2.40;2.40;;;;;;;;;;6278343;28;20417;-71
2023/11/18 17:13:16;;;;;;;2.20;2.17;;;;;;;;;;6277943;28;20804;-69
2023/11/18 17:16:25;;;;;;;2.27;2.27;;;;;;;;;;6279949;28;20295;-70
2023/11/18 17:19:29;;;;;;;2.63;2.57;;;;;;;;;;6278326;28;20309;-71
2023/11/18 17:22:32;;;;;;;2.33;2.30;;;;;;;;;;6277968;28;20301;-70
2023/11/18 17:25:37;;;;;;;2.57;2.47;;;;;;;;;;6276125;28;20309;-73
2023/11/18 17:28:41;;;;;;;3.13;2.90;;;;;;;;;;6285771;28;20313;-71
2023/11/18 17:31:45;;;;;;;2.97;2.80;;;;;;;;;;6260329;28;20292;-71
2023/11/18 17:34:49;;;;;;;5.83;2.73;;;;;;;;;;6278277;28;20297;-72
2023/11/18 17:37:53;;;;;;;3.03;2.70;;;;;;;;;;6278080;28;20307;-70
2023/11/18 17:40:58;;;;;;;2.97;2.77;;;;;;;;;;6293511;28;20282;-74
2023/11/18 17:44:02;;;;;;;3.23;2.93;;;;;;;;;;6278493;28;20801;-70
2023/11/18 17:47:07;;;;;;;4.60;3.33;;;;;;;;;;6278605;28;20306;-72
2023/11/18 17:50:13;;;;;;;3.10;2.90;;;;;;;;;;6277845;28;20313;-72
2023/11/18 17:53:18;;;;;;;3.30;3.00;;;;;;;;;;6278312;28;20298;-73
2023/11/18 17:56:23;;;;;;;4.43;2.97;;;;;;;;;;6278845;28;20286;-74
2023/11/18 17:59:28;;;;;;;4.13;3.30;;;;;;;;;;6276204;28;20557;-75
2023/11/18 18:02:33;;;;;;;2.57;2.47;;;;;;;;;;6277877;28;20305;-73
2023/11/18 18:05:38;;;;;;;3.70;2.67;;;;;;;;;;6277886;28;20481;-72
2023/11/18 18:08:41;;;;;;;2.30;2.30;;;;;;;;;;6277882;28;20338;-72
2023/11/18 18:11:46;;;;;;;2.50;2.40;;;;;;;;;;6278281;28;20455;-72
2023/11/18 18:14:51;;;;;;;2.43;2.33;;;;;;;;;;6277791;28;20301;-72
2023/11/18 18:17:55;;;;;;;2.00;2.00;;;;;;;;;;6277540;28;20399;-74
2023/11/18 18:20:59;;;;;;;1.80;1.80;;;;;;;;;;6278262;28;20287;-73
2023/11/18 18:24:03;;;;;;;2.00;2.00;;;;;;;;;;6278870;28;20310;-75
2023/11/18 18:27:08;;;;;;;2.10;2.10;;;;;;;;;;6254620;28;20359;-73
2023/11/18 18:30:14;;;;;;;2.00;2.00;;;;;;;;;;6282407;28;20256;-72
2023/11/18 18:33:18;;;;;;;2.03;2.03;;;;;;;;;;6281326;28;20313;-71
2023/11/18 18:36:22;;;;;;;2.10;2.00;;;;;;;;;;6282441;28;20298;-71